createdAt,value
2018-10-12T00:03:10.092Z,12.60
2018-10-12T00:08:13.077Z,12.50
2018-10-12T00:13:15.972Z,12.40
2018-10-12T00:18:18.924Z,12.30
2018-10-12T00:23:21.854Z,12.30
2018-10-12T00:28:24.884Z,12.40
2018-10-12T00:33:28.161Z,12.40
2018-10-12T00:38:31.190Z,12.30
2018-10-12T00:43:34.167Z,12.20
2018-10-12T00:48:37.110Z,12.00
2018-10-12T00:53:40.251Z,12.00
2018-10-12T00:58:43.214Z,12.00
2018-10-12T01:03:46.448Z,12.10
2018-10-12T01:08:49.559Z,12.10
2018-10-12T01:13:52.589Z,12.00
2018-10-12T01:18:55.538Z,11.90
2018-10-12T01:23:58.636Z,11.60
2018-10-12T01:29:02.786Z,11.50
2018-10-12T01:34:05.837Z,11.40
2018-10-12T01:39:08.841Z,11.50
2018-10-12T01:44:11.864Z,11.50
2018-10-12T01:49:14.914Z,11.60
2018-10-12T01:54:17.939Z,11.60
2018-10-12T01:59:21.191Z,11.60
2018-10-12T02:04:24.196Z,11.60
2018-10-12T02:09:27.201Z,11.50
2018-10-12T02:14:30.531Z,11.30
2018-10-12T02:19:33.565Z,11.10
2018-10-12T02:24:37.175Z,10.80
2018-10-12T02:29:40.119Z,10.90
2018-10-12T02:34:43.073Z,10.90
2018-10-12T02:39:45.999Z,11.20
2018-10-12T02:44:49.463Z,11.20
2018-10-12T02:49:52.441Z,11.10
2018-10-12T02:54:55.412Z,10.80
2018-10-12T02:59:58.491Z,10.80
2018-10-12T03:05:02.122Z,10.80
2018-10-12T03:10:05.164Z,10.90
2018-10-12T03:15:08.188Z,11.00
2018-10-12T03:20:11.163Z,11.00
2018-10-12T03:25:14.129Z,10.90
2018-10-12T03:30:17.211Z,10.80
2018-10-12T03:35:20.261Z,10.80
2018-10-12T03:40:23.227Z,10.80
2018-10-12T03:45:26.180Z,10.70
2018-10-12T03:50:29.249Z,10.60
2018-10-12T03:55:32.258Z,10.40
2018-10-12T04:00:35.224Z,10.40
2018-10-12T04:05:38.200Z,10.30
2018-10-12T04:10:41.219Z,10.20
2018-10-12T04:15:44.280Z,10.30
2018-10-12T04:20:47.860Z,10.50
2018-10-12T04:25:51.353Z,10.80
2018-10-12T04:30:54.553Z,10.80
2018-10-12T04:35:57.710Z,10.70
2018-10-12T04:41:07.330Z,10.70
2018-10-12T04:46:13.634Z,10.70
2018-10-12T04:51:31.007Z,10.70
2018-10-12T04:56:33.972Z,10.70
2018-10-12T05:01:37.009Z,10.60
2018-10-12T05:06:40.060Z,10.70
2018-10-12T05:11:43.475Z,10.80
2018-10-12T05:16:46.511Z,10.90
2018-10-12T05:21:49.496Z,10.90
2018-10-12T05:26:52.748Z,11.10
2018-10-12T05:31:55.699Z,11.20
2018-10-12T05:36:58.723Z,11.30
2018-10-12T05:42:02.629Z,11.40
2018-10-12T05:47:05.882Z,11.60
2018-10-12T05:52:09.003Z,11.70
2018-10-12T05:57:12.075Z,11.70
2018-10-12T06:02:15.072Z,11.70
2018-10-12T06:07:18.010Z,11.70
2018-10-12T06:12:21.035Z,11.80
2018-10-12T06:17:23.990Z,12.00
2018-10-12T06:22:26.975Z,12.20
2018-10-12T06:27:29.966Z,12.30
2018-10-12T06:32:32.971Z,12.30
2018-10-12T06:37:35.955Z,12.20
2018-10-12T06:42:38.915Z,12.50
2018-10-12T06:47:41.914Z,13.80
2018-10-12T06:52:44.914Z,14.80
2018-10-12T06:57:47.935Z,15.50
2018-10-12T07:02:51.118Z,15.90
2018-10-12T07:07:54.208Z,16.60
2018-10-12T07:12:57.306Z,17.10
2018-10-12T07:18:00.268Z,17.50
2018-10-12T07:23:05.121Z,18.00
2018-10-12T07:28:08.160Z,18.00
2018-10-12T07:33:11.142Z,18.30
2018-10-12T07:38:14.148Z,18.40
2018-10-12T07:43:17.132Z,18.70
2018-10-12T07:48:20.124Z,18.90
2018-10-12T07:53:23.339Z,19.30
2018-10-12T07:58:26.343Z,19.60
2018-10-12T08:03:29.342Z,19.40
2018-10-12T08:08:32.413Z,19.40
2018-10-12T08:13:35.466Z,19.30
2018-10-12T08:18:39.323Z,19.10
2018-10-12T08:23:42.395Z,19.20
2018-10-12T08:28:45.418Z,19.40
2018-10-12T08:33:48.552Z,19.50
2018-10-12T08:38:51.594Z,19.50
2018-10-12T08:43:54.717Z,19.70
2018-10-12T08:48:57.741Z,19.40
2018-10-12T08:54:01.611Z,19.20
2018-10-12T08:59:05.739Z,19.50
2018-10-12T09:04:08.774Z,19.40
2018-10-12T09:09:11.804Z,19.80
2018-10-12T09:14:14.769Z,19.30
2018-10-12T09:19:17.809Z,19.30
2018-10-12T09:24:20.835Z,19.30
2018-10-12T09:29:23.904Z,19.20
2018-10-12T09:34:27.033Z,19.40
2018-10-12T09:39:30.196Z,19.50
2018-10-12T09:44:33.280Z,19.50
2018-10-12T09:49:36.328Z,19.50
2018-10-12T09:54:39.311Z,19.50
2018-10-12T09:59:42.509Z,19.50
2018-10-12T10:04:45.500Z,19.70
2018-10-12T10:09:48.472Z,20.00
2018-10-12T10:14:51.504Z,20.10
2018-10-12T10:19:54.395Z,20.20
2018-10-12T10:24:58.323Z,20.30
2018-10-12T10:30:02.618Z,20.40
2018-10-12T10:35:06.099Z,20.60
2018-10-12T10:40:09.103Z,20.80
2018-10-12T10:45:12.106Z,20.90
2018-10-12T10:50:15.213Z,21.00
2018-10-12T10:55:18.250Z,21.10
2018-10-12T11:00:21.475Z,21.40
2018-10-12T11:05:24.534Z,21.50
2018-10-12T11:10:27.576Z,21.50
2018-10-12T11:15:30.795Z,21.60
2018-10-12T11:20:33.804Z,21.70
2018-10-12T11:25:36.827Z,21.80
2018-10-12T11:30:39.818Z,21.80
2018-10-12T11:35:42.930Z,22.00
2018-10-12T11:40:46.012Z,22.40
2018-10-12T11:45:49.145Z,22.60
2018-10-12T11:50:52.144Z,22.50
2018-10-12T11:55:55.155Z,22.70
2018-10-12T12:00:58.233Z,22.70
2018-10-12T12:06:03.090Z,23.00
2018-10-12T12:11:06.522Z,23.20
2018-10-12T12:16:09.610Z,23.30
2018-10-12T12:21:12.600Z,23.50
2018-10-12T12:26:15.644Z,23.50
2018-10-12T12:31:18.663Z,23.50
2018-10-12T12:36:21.641Z,23.80
2018-10-12T12:41:24.639Z,24.00
2018-10-12T12:46:27.615Z,23.90
2018-10-12T12:51:30.703Z,24.10
2018-10-12T12:56:33.810Z,24.20
2018-10-12T13:01:37.075Z,24.10
2018-10-12T13:06:40.097Z,24.10
2018-10-12T13:11:43.064Z,24.30
2018-10-12T13:16:46.056Z,24.40
2018-10-12T13:21:49.063Z,24.50
2018-10-12T13:26:52.289Z,24.50
2018-10-12T13:31:55.336Z,24.80
2018-10-12T13:36:58.314Z,24.80
2018-10-12T13:42:03.175Z,24.90
2018-10-12T13:47:06.120Z,24.90
2018-10-12T13:52:09.200Z,25.10
2018-10-12T13:57:12.295Z,25.10
2018-10-12T14:02:15.270Z,25.10
2018-10-12T14:07:18.313Z,25.10
2018-10-12T14:12:21.394Z,25.10
2018-10-12T14:17:24.266Z,25.10
2018-10-12T14:22:27.268Z,24.90
2018-10-12T14:27:30.209Z,24.90
2018-10-12T14:32:33.294Z,24.90
2018-10-12T14:37:36.285Z,25.00
2018-10-12T14:42:39.288Z,25.10
2018-10-12T14:47:42.226Z,25.00
2018-10-12T14:52:45.129Z,25.00
2018-10-12T14:57:48.070Z,24.90
2018-10-12T15:02:51.024Z,24.90
2018-10-12T15:07:54.028Z,24.80
2018-10-12T15:12:57.135Z,24.70
2018-10-12T15:18:00.184Z,24.60
2018-10-12T15:23:03.835Z,24.40
2018-10-12T15:28:07.043Z,24.40
2018-10-12T15:33:10.128Z,24.30
2018-10-12T15:38:13.045Z,24.20
2018-10-12T15:43:16.184Z,24.10
2018-10-12T15:48:19.214Z,23.90
2018-10-12T15:53:22.216Z,23.80
2018-10-12T15:58:25.262Z,23.70
2018-10-12T16:03:28.404Z,23.50
2018-10-12T16:08:31.562Z,23.40
2018-10-12T16:13:34.645Z,23.10
2018-10-12T16:18:37.701Z,22.90
2018-10-12T16:23:40.684Z,22.80
2018-10-12T16:28:43.664Z,22.60
2018-10-12T16:33:46.733Z,22.30
2018-10-12T16:38:49.741Z,22.10
2018-10-12T16:43:52.711Z,21.90
2018-10-12T16:48:55.749Z,21.70
2018-10-12T16:53:59.090Z,21.40
2018-10-12T16:59:02.714Z,21.00
2018-10-12T17:04:05.869Z,20.80
2018-10-12T17:09:08.825Z,20.60
2018-10-12T17:14:11.769Z,20.40
2018-10-12T17:19:14.822Z,20.20
2018-10-12T17:24:17.810Z,20.20
2018-10-12T17:29:21.055Z,20.00
2018-10-12T17:34:24.045Z,19.70
2018-10-12T17:39:27.077Z,19.50
2018-10-12T17:44:30.093Z,19.30
2018-10-12T17:49:33.168Z,19.10
2018-10-12T17:54:36.198Z,19.00
2018-10-12T17:59:39.280Z,18.80
2018-10-12T18:04:42.480Z,18.50
2018-10-12T18:09:45.590Z,18.30
2018-10-12T18:14:48.632Z,18.10
2018-10-12T18:19:51.730Z,18.00
2018-10-12T18:24:54.606Z,17.90
2018-10-12T18:29:57.912Z,17.80
2018-10-12T18:35:03.232Z,17.70
2018-10-12T18:40:06.708Z,17.80
2018-10-12T18:45:10.285Z,17.70
2018-10-12T18:50:13.919Z,17.50
2018-10-12T18:55:17.446Z,17.30
2018-10-12T19:00:20.967Z,17.30
2018-10-12T19:05:24.709Z,17.30
2018-10-12T19:10:28.348Z,17.40
2018-10-12T19:15:31.759Z,17.50
2018-10-12T19:20:35.633Z,17.30
2018-10-12T19:25:39.081Z,17.30
2018-10-12T19:30:42.357Z,16.90
2018-10-12T19:35:45.734Z,16.80
2018-10-12T19:40:49.314Z,16.70
2018-10-12T19:45:52.696Z,16.60
2018-10-12T19:50:56.369Z,16.60
2018-10-12T19:55:59.864Z,16.60
2018-10-12T20:01:04.402Z,16.30
2018-10-12T20:06:08.035Z,16.10
2018-10-12T20:11:11.666Z,15.80
2018-10-12T20:16:15.075Z,15.80
2018-10-12T20:21:18.438Z,15.90
2018-10-12T20:26:21.761Z,15.80
2018-10-12T20:31:25.221Z,15.80
2018-10-12T20:36:28.719Z,15.80
2018-10-12T20:41:32.014Z,15.70
2018-10-12T20:46:35.515Z,15.60
2018-10-12T20:51:38.910Z,15.50
2018-10-12T20:56:42.204Z,15.40
2018-10-12T21:01:45.498Z,15.30
2018-10-12T21:06:48.996Z,15.10
2018-10-12T21:11:52.360Z,15.10
2018-10-12T21:16:55.925Z,15.00
2018-10-12T21:21:59.519Z,15.00
2018-10-12T21:27:04.458Z,14.90
2018-10-12T21:32:08.380Z,14.80
2018-10-12T21:37:12.949Z,14.80
2018-10-12T21:42:16.474Z,14.80
2018-10-12T21:47:20.014Z,14.80
2018-10-12T21:52:23.479Z,14.60
2018-10-12T21:57:26.876Z,14.50
2018-10-12T22:02:30.175Z,14.60
2018-10-12T22:07:33.871Z,14.70
2018-10-12T22:12:37.227Z,14.90
2018-10-12T22:17:40.179Z,14.80
2018-10-12T22:22:43.198Z,14.70
2018-10-12T22:27:46.252Z,14.80
2018-10-12T22:32:49.274Z,14.60
2018-10-12T22:37:52.240Z,14.50
2018-10-12T22:42:55.342Z,14.50
2018-10-12T22:47:58.297Z,14.50
2018-10-12T22:53:03.585Z,14.60
2018-10-12T22:58:06.548Z,14.60
2018-10-12T23:03:09.616Z,14.70
2018-10-12T23:08:12.595Z,14.80
2018-10-12T23:13:15.945Z,14.90
2018-10-12T23:18:19.148Z,14.90
2018-10-12T23:23:22.265Z,14.90
2018-10-12T23:28:25.277Z,15.00
2018-10-12T23:33:45.645Z,14.90
2018-10-12T23:38:48.847Z,14.90
2018-10-12T23:43:51.936Z,14.80
2018-10-12T23:48:55.352Z,14.50
2018-10-12T23:53:58.482Z,14.20
2018-10-12T23:59:02.683Z,14.20
